createdAt,value
2017-04-16T00:00:30.631Z,73.28
2017-04-16T00:02:35.097Z,73.83
2017-04-16T00:03:35.051Z,73.80
2017-04-16T00:04:39.702Z,73.70
2017-04-16T00:05:46.419Z,73.64
2017-04-16T00:06:35.355Z,74.07
2017-04-16T00:07:39.650Z,74.25
2017-04-16T00:08:35.238Z,74.65
2017-04-16T00:09:40.287Z,75.09
2017-04-16T00:10:35.472Z,74.85
2017-04-16T00:11:40.177Z,75.39
2017-04-16T00:12:35.463Z,74.78
2017-04-16T00:13:40.173Z,74.40
2017-04-16T00:14:39.832Z,74.62
2017-04-16T00:15:39.595Z,74.79
2017-04-16T00:16:34.560Z,74.50
2017-04-16T00:17:35.812Z,74.87
2017-04-16T00:18:39.657Z,75.04
2017-04-16T00:19:31.777Z,75.04
2017-04-16T00:20:41.107Z,74.80
2017-04-16T00:21:41.403Z,75.04
2017-04-16T00:22:35.497Z,74.93
2017-04-16T00:23:40.209Z,75.44
2017-04-16T00:24:36.487Z,74.94
2017-04-16T00:25:39.795Z,75.07
2017-04-16T00:26:40.306Z,75.24
2017-04-16T00:27:35.221Z,75.58
2017-04-16T00:28:42.414Z,75.45
2017-04-16T00:29:36.132Z,75.58
2017-04-16T00:30:40.021Z,75.40
2017-04-16T00:31:40.020Z,75.55
2017-04-16T00:32:35.626Z,75.45
2017-04-16T00:33:34.735Z,75.36
2017-04-16T00:34:41.411Z,75.97
2017-04-16T00:35:35.402Z,75.97
2017-04-16T00:36:42.115Z,76.65
2017-04-16T00:37:39.720Z,76.64
2017-04-16T00:38:34.598Z,76.64
2017-04-16T00:39:39.876Z,76.17
2017-04-16T00:40:29.556Z,76.27
2017-04-16T00:41:39.693Z,76.28
2017-04-16T00:42:40.644Z,76.33
2017-04-16T00:43:40.435Z,76.46
2017-04-16T00:44:34.810Z,77.02
2017-04-16T00:45:34.321Z,76.58
2017-04-16T00:46:40.163Z,76.75
2017-04-16T00:47:41.552Z,76.86
2017-04-16T00:48:40.131Z,77.03
2017-04-16T00:49:40.053Z,76.98
2017-04-16T00:50:35.246Z,76.80
2017-04-16T00:51:40.021Z,77.42
2017-04-16T00:52:35.544Z,76.99
2017-04-16T00:53:42.023Z,77.02
2017-04-16T00:54:40.100Z,77.23
2017-04-16T00:55:41.224Z,77.10
2017-04-16T00:56:40.453Z,77.14
2017-04-16T00:57:34.830Z,77.64
2017-04-16T00:58:34.724Z,77.69
2017-04-16T00:59:36.718Z,77.65
2017-04-16T01:00:39.724Z,77.65
2017-04-16T01:01:44.787Z,77.70
2017-04-16T01:02:42.196Z,77.26
2017-04-16T01:03:35.550Z,77.47
2017-04-16T01:04:34.875Z,77.40
2017-04-16T01:05:39.732Z,77.33
2017-04-16T01:06:35.506Z,77.47
2017-04-16T01:07:34.773Z,77.69
2017-04-16T01:08:40.148Z,77.61
2017-04-16T01:09:48.262Z,77.63
2017-04-16T01:10:45.430Z,77.85
2017-04-16T01:11:35.350Z,77.79
2017-04-16T01:12:40.260Z,77.62
2017-04-16T01:13:35.249Z,77.48
2017-04-16T01:14:45.091Z,77.22
2017-04-16T01:15:39.745Z,77.18
2017-04-16T01:16:41.744Z,76.55
2017-04-16T01:17:31.749Z,76.72
2017-04-16T01:18:39.755Z,76.86
2017-04-16T01:19:46.414Z,76.23
2017-04-16T01:20:34.813Z,76.51
2017-04-16T01:21:40.762Z,76.92
2017-04-16T01:22:46.062Z,77.04
2017-04-16T01:23:45.233Z,76.87
2017-04-16T01:24:47.459Z,77.00
2017-04-16T01:25:37.136Z,76.47
2017-04-16T01:26:32.226Z,76.87
2017-04-16T01:27:27.085Z,76.78
2017-04-16T01:28:34.887Z,76.91
2017-04-16T01:29:37.246Z,77.29
2017-04-16T01:30:43.512Z,76.83
2017-04-16T01:31:48.972Z,76.58
2017-04-16T01:32:51.101Z,77.53
2017-04-16T01:33:56.575Z,77.12
2017-04-16T01:35:35.642Z,76.24
2017-04-16T01:36:39.793Z,75.81
2017-04-16T01:37:39.790Z,75.71
2017-04-16T01:38:45.456Z,76.57
2017-04-16T01:39:39.973Z,76.48
2017-04-16T01:40:35.885Z,76.32
2017-04-16T01:41:36.432Z,76.08
2017-04-16T01:42:35.600Z,76.05
2017-04-16T01:43:34.921Z,75.90
2017-04-16T01:44:35.635Z,75.68
2017-04-16T01:45:40.018Z,75.52
2017-04-16T01:46:40.589Z,75.66
2017-04-16T01:47:40.051Z,75.81
2017-04-16T01:48:34.491Z,75.70
2017-04-16T01:49:39.389Z,75.27
2017-04-16T01:50:34.935Z,75.59
2017-04-16T01:51:36.802Z,75.93
2017-04-16T01:52:39.804Z,75.93
2017-04-16T01:53:29.892Z,75.63
2017-04-16T01:54:40.118Z,75.40
2017-04-16T01:55:39.844Z,75.89
2017-04-16T01:56:35.503Z,76.51
2017-04-16T01:57:34.917Z,76.20
2017-04-16T01:58:35.590Z,76.13
2017-04-16T01:59:41.688Z,76.08
2017-04-16T02:00:35.200Z,75.70
2017-04-16T02:01:35.161Z,75.41
2017-04-16T02:02:35.705Z,75.42
2017-04-16T02:03:39.450Z,75.36
2017-04-16T02:04:35.265Z,75.44
2017-04-16T02:05:35.689Z,74.77
2017-04-16T02:06:34.984Z,75.11
2017-04-16T02:07:35.580Z,75.73
2017-04-16T02:08:45.907Z,75.69
2017-04-16T02:09:35.572Z,74.62
2017-04-16T02:10:35.564Z,75.08
2017-04-16T02:11:37.317Z,74.62
2017-04-16T02:12:40.441Z,75.02
2017-04-16T02:13:35.039Z,74.92
2017-04-16T02:14:45.177Z,75.17
2017-04-16T02:15:42.683Z,74.82
2017-04-16T02:16:35.617Z,74.43
2017-04-16T02:18:39.732Z,74.50
2017-04-16T02:19:39.958Z,74.28
2017-04-16T02:20:35.128Z,74.39
2017-04-16T02:21:40.961Z,73.78
2017-04-16T02:22:34.997Z,73.27
2017-04-16T02:23:30.612Z,73.47
2017-04-16T02:24:39.939Z,73.48
2017-04-16T02:25:40.649Z,73.68
2017-04-16T02:26:35.654Z,73.02
2017-04-16T02:27:38.578Z,73.46
2017-04-16T02:28:40.083Z,73.36
2017-04-16T02:29:41.873Z,73.45
2017-04-16T02:30:35.651Z,73.39
2017-04-16T02:31:42.592Z,73.42
2017-04-16T02:32:41.386Z,73.37
2017-04-16T02:33:35.697Z,73.39
2017-04-16T02:34:42.635Z,72.56
2017-04-16T02:35:35.664Z,72.41
2017-04-16T02:36:40.326Z,72.77
2017-04-16T02:37:41.627Z,72.63
2017-04-16T02:38:35.189Z,72.92
2017-04-16T02:39:40.984Z,72.54
2017-04-16T02:40:35.989Z,72.71
2017-04-16T02:41:36.227Z,72.11
2017-04-16T02:42:39.867Z,71.91
2017-04-16T02:43:39.993Z,72.34
2017-04-16T02:44:30.377Z,72.33
2017-04-16T02:45:39.549Z,72.31
2017-04-16T02:46:35.559Z,72.22
2017-04-16T02:47:39.008Z,72.23
2017-04-16T02:48:40.956Z,72.12
2017-04-16T02:49:42.310Z,71.96
2017-04-16T02:50:35.407Z,72.07
2017-04-16T02:51:39.582Z,72.40
2017-04-16T02:52:39.691Z,72.27
2017-04-16T02:53:35.010Z,71.85
2017-04-16T02:54:41.419Z,71.92
2017-04-16T02:55:41.934Z,72.19
2017-04-16T02:56:35.749Z,71.86
2017-04-16T02:57:38.673Z,71.96
2017-04-16T02:58:30.730Z,72.05
2017-04-16T02:59:45.123Z,71.97
2017-04-16T03:00:35.154Z,71.85
2017-04-16T03:01:39.980Z,72.25
2017-04-16T03:02:35.735Z,72.05
2017-04-16T03:03:40.372Z,71.92
2017-04-16T03:04:40.474Z,71.80
2017-04-16T03:05:35.754Z,71.75
2017-04-16T03:45:29.603Z,65.18
2017-04-16T03:45:40.639Z,65.74
2017-04-16T03:46:37.209Z,65.65
2017-04-16T03:47:41.308Z,65.16
2017-04-16T03:48:33.969Z,65.24
2017-04-16T03:49:28.556Z,65.82
2017-04-16T03:50:44.516Z,65.62
2017-04-16T03:51:37.885Z,64.38
2017-04-16T03:52:48.093Z,64.45
2017-04-16T03:53:37.841Z,64.37
2017-04-16T03:55:42.137Z,63.97
2017-04-16T03:56:37.366Z,63.77
2017-04-16T03:57:42.043Z,62.97
2017-04-16T03:58:32.182Z,63.60
2017-04-16T03:59:40.600Z,63.45
2017-04-16T04:01:36.780Z,63.85
2017-04-16T04:02:44.232Z,63.98
2017-04-16T04:03:36.393Z,63.52
2017-04-16T04:04:36.850Z,62.71
2017-04-16T04:06:37.019Z,63.40
2017-04-16T04:08:37.127Z,62.16
2017-04-16T04:10:41.368Z,62.26
2017-04-16T04:11:37.010Z,62.71
2017-04-16T04:12:42.089Z,62.77
2017-04-16T04:13:41.664Z,62.47
2017-04-16T04:15:38.373Z,62.47
2017-04-16T04:16:42.108Z,62.59
2017-04-16T04:17:38.495Z,63.02
2017-04-16T04:18:43.212Z,63.21
2017-04-16T04:20:37.114Z,63.64
2017-04-16T04:21:44.102Z,63.20
2017-04-16T04:22:42.519Z,62.99
2017-04-16T04:23:45.100Z,63.39
2017-04-16T04:24:36.382Z,63.29
2017-04-16T04:25:41.973Z,63.76
2017-04-16T04:26:36.322Z,63.87
2017-04-16T04:27:31.676Z,63.97
2017-04-16T04:28:41.585Z,64.69
2017-04-16T04:29:36.866Z,65.53
2017-04-16T04:30:36.793Z,65.04
2017-04-16T04:31:36.920Z,65.50
2017-04-16T04:32:41.525Z,65.76
2017-04-16T04:33:37.200Z,66.13
2017-04-16T04:35:38.935Z,67.10
2017-04-16T04:36:36.414Z,67.50
2017-04-16T04:37:37.887Z,67.72
2017-04-16T04:38:42.481Z,67.78
2017-04-16T04:39:42.639Z,68.43
2017-04-16T04:40:41.112Z,68.04
2017-04-16T04:41:36.838Z,68.36
2017-04-16T04:42:37.350Z,68.77
2017-04-16T04:43:36.934Z,69.16
2017-04-16T04:44:37.034Z,69.37
2017-04-16T04:45:34.189Z,69.19
2017-04-16T04:46:36.937Z,69.30
2017-04-16T04:47:37.385Z,69.14
2017-04-16T04:48:31.366Z,68.61
2017-04-16T04:50:44.054Z,69.22
2017-04-16T04:51:42.377Z,68.95
2017-04-16T04:52:42.379Z,69.87
2017-04-16T04:53:42.374Z,69.36
2017-04-16T04:54:37.052Z,69.43
2017-04-16T04:55:42.056Z,69.77
2017-04-16T04:56:42.180Z,69.98
2017-04-16T04:58:42.116Z,70.33
2017-04-16T04:59:37.005Z,70.78
2017-04-16T05:01:36.823Z,70.68
2017-04-16T05:02:37.166Z,70.85
2017-04-16T05:03:42.207Z,71.02
2017-04-16T05:04:41.469Z,71.04
2017-04-16T05:05:42.482Z,71.47
2017-04-16T05:06:31.475Z,71.31
2017-04-16T05:07:37.128Z,71.09
2017-04-16T05:08:44.120Z,71.37
2017-04-16T05:09:42.817Z,71.65
2017-04-16T05:10:43.829Z,72.09
2017-04-16T05:12:42.359Z,72.20
2017-04-16T05:13:37.104Z,72.07
2017-04-16T05:14:34.209Z,71.97
2017-04-16T05:16:37.178Z,72.55
2017-04-16T05:17:37.286Z,72.90
2017-04-16T05:18:41.843Z,72.88
2017-04-16T05:19:42.088Z,72.93
2017-04-16T05:21:42.602Z,72.10
2017-04-16T05:22:43.601Z,72.51
2017-04-16T05:23:48.095Z,72.42
2017-04-16T05:24:37.067Z,72.13
2017-04-16T05:25:41.808Z,72.55
2017-04-16T05:26:41.859Z,73.16
2017-04-16T05:27:41.471Z,73.49
2017-04-16T05:28:37.111Z,72.80
2017-04-16T05:29:47.870Z,71.82
2017-04-16T05:30:39.182Z,71.90
2017-04-16T05:31:33.860Z,72.12
2017-04-16T05:32:43.027Z,71.47
2017-04-16T05:33:41.810Z,71.78
2017-04-16T05:34:42.088Z,72.26
2017-04-16T05:35:45.122Z,72.35
2017-04-16T05:37:43.420Z,72.85
2017-04-16T05:38:39.052Z,72.84
2017-04-16T05:39:27.099Z,72.59
2017-04-16T05:40:44.389Z,72.67
2017-04-16T05:41:36.911Z,72.22
2017-04-16T05:42:42.195Z,72.18
2017-04-16T05:43:44.183Z,71.70
2017-04-16T05:44:36.812Z,71.71
2017-04-16T05:45:47.856Z,71.56
2017-04-16T05:47:42.934Z,71.30
2017-04-16T05:48:42.317Z,71.55
2017-04-16T05:49:38.902Z,71.37
2017-04-16T05:50:43.612Z,70.91
2017-04-16T05:54:36.905Z,71.02
2017-04-16T05:57:36.893Z,70.86
2017-04-16T05:58:36.999Z,70.65
2017-04-16T05:59:40.938Z,70.66
2017-04-16T06:00:47.754Z,70.77
2017-04-16T06:01:38.986Z,70.13
2017-04-16T06:02:42.773Z,70.35
2017-04-16T06:03:41.472Z,70.15
2017-04-16T06:04:38.596Z,69.94
2017-04-16T06:05:37.041Z,70.30
2017-04-16T06:06:32.203Z,70.47
2017-04-16T06:07:37.220Z,69.31
2017-04-16T06:08:32.580Z,69.15
2017-04-16T06:09:41.946Z,69.41
2017-04-16T06:10:37.261Z,69.86
2017-04-16T06:11:44.201Z,68.83
2017-04-16T06:12:37.895Z,69.50
2017-04-16T06:13:44.423Z,68.62
2017-04-16T06:16:42.069Z,68.24
2017-04-16T06:17:42.952Z,68.12
2017-04-16T06:18:42.379Z,68.38
2017-04-16T06:19:38.839Z,67.86
2017-04-16T06:20:44.060Z,67.70
2017-04-16T06:21:39.720Z,68.01
2017-04-16T06:22:41.742Z,67.62
2017-04-16T06:23:39.744Z,67.55
2017-04-16T06:25:37.342Z,67.63
2017-04-16T06:26:44.096Z,67.75
2017-04-16T06:27:41.471Z,67.91
2017-04-16T06:28:42.957Z,67.57
2017-04-16T06:29:32.646Z,67.78
2017-04-16T06:30:37.077Z,67.08
2017-04-16T06:31:36.813Z,68.21
2017-04-16T06:33:36.945Z,65.79
2017-04-16T06:34:37.911Z,66.45
2017-04-16T06:35:37.620Z,66.22
2017-04-16T06:36:32.007Z,65.59
2017-04-16T06:38:42.141Z,66.19
2017-04-16T06:39:37.662Z,65.21
2017-04-16T06:40:38.759Z,64.94
2017-04-16T06:41:36.849Z,64.61
2017-04-16T06:42:39.855Z,64.16
2017-04-16T06:43:36.927Z,64.81
2017-04-16T06:44:32.004Z,63.68
2017-04-16T06:45:37.032Z,64.35
2017-04-16T06:47:40.894Z,63.46
2017-04-16T06:48:44.203Z,62.98
2017-04-16T06:49:41.981Z,63.15
2017-04-16T06:50:39.375Z,62.89
2017-04-16T06:51:44.246Z,62.50
2017-04-16T06:52:49.086Z,62.09
2017-04-16T06:53:36.989Z,62.58
2017-04-16T06:54:37.683Z,62.13
2017-04-16T06:55:41.229Z,61.58
2017-04-16T06:56:49.898Z,61.90
2017-04-16T06:57:36.971Z,61.37
2017-04-16T06:58:37.438Z,61.22
2017-04-16T06:59:42.268Z,60.83
2017-04-16T07:00:37.078Z,61.39
2017-04-16T07:01:48.013Z,61.53
2017-04-16T07:02:43.963Z,61.03
2017-04-16T07:03:42.282Z,61.04
2017-04-16T07:04:43.276Z,61.59
2017-04-16T07:05:37.987Z,61.56
2017-04-16T07:06:40.125Z,61.86
2017-04-16T07:07:42.998Z,60.25
2017-04-16T07:09:37.070Z,60.81
2017-04-16T07:10:43.985Z,59.86
2017-04-16T07:11:42.293Z,59.75
2017-04-16T07:12:39.059Z,60.36
2017-04-16T07:13:38.555Z,60.55
2017-04-16T07:14:38.662Z,60.62
2017-04-16T07:15:36.712Z,60.23
2017-04-16T07:17:32.885Z,60.28
2017-04-16T07:18:37.300Z,60.32
2017-04-16T07:19:36.781Z,60.37
2017-04-16T07:20:37.144Z,60.18
2017-04-16T07:21:42.640Z,59.23
2017-04-16T07:22:41.471Z,59.81
2017-04-16T07:23:41.369Z,59.47
2017-04-16T07:24:36.855Z,59.42
2017-04-16T07:25:36.487Z,59.68
2017-04-16T07:26:37.187Z,59.37
2017-04-16T07:27:37.109Z,59.56
2017-04-16T07:29:44.512Z,58.66
2017-04-16T07:30:45.127Z,58.57
2017-04-16T07:32:35.463Z,58.91
2017-04-16T07:35:14.368Z,57.21
2017-04-16T07:35:41.974Z,57.41
2017-04-16T07:36:40.389Z,57.21
2017-04-16T07:37:40.178Z,57.44
2017-04-16T07:38:42.561Z,57.92
2017-04-16T07:39:45.389Z,57.62
2017-04-16T07:44:37.133Z,57.77
2017-04-16T07:45:38.971Z,57.76
2017-04-16T07:46:36.864Z,57.37
2017-04-16T07:47:47.002Z,57.90
2017-04-16T07:48:42.388Z,57.52
2017-04-16T07:49:48.106Z,57.64
2017-04-16T07:50:34.222Z,57.79
2017-04-16T07:51:36.934Z,58.11
2017-04-16T07:52:47.158Z,58.39
2017-04-16T07:53:49.392Z,58.28
2017-04-16T07:55:52.689Z,57.85
2017-04-16T07:56:39.131Z,57.80
2017-04-16T07:57:46.312Z,57.87
2017-04-16T07:59:42.136Z,57.76
2017-04-16T11:26:43.453Z,68.03
2017-04-16T11:28:16.720Z,67.55
2017-04-16T11:46:44.436Z,66.66
2017-04-16T12:25:32.558Z,65.09
2017-04-16T14:32:55.019Z,71.62
2017-04-16T14:40:45.855Z,71.33
2017-04-16T16:45:40.328Z,74.47
2017-04-16T16:48:34.638Z,73.97
2017-04-16T16:50:53.588Z,74.01
2017-04-16T17:04:25.574Z,73.17
2017-04-16T17:06:33.795Z,73.90
2017-04-16T17:07:39.963Z,73.82
2017-04-16T17:08:38.578Z,73.44
2017-04-16T17:30:29.122Z,74.57
2017-04-16T17:31:33.442Z,74.78
2017-04-16T17:34:52.128Z,74.96
2017-04-16T17:35:40.294Z,74.98
2017-04-16T18:04:57.445Z,75.00
2017-04-16T18:34:39.420Z,75.09
2017-04-16T18:48:30.479Z,74.95
2017-04-16T18:49:47.462Z,75.18
2017-04-16T19:13:53.450Z,74.00
2017-04-16T19:15:51.021Z,73.96
2017-04-16T19:17:40.719Z,73.95
2017-04-16T19:19:40.791Z,74.70
2017-04-16T19:21:26.307Z,74.67
2017-04-16T19:31:35.753Z,75.39
2017-04-16T19:33:47.344Z,75.15
2017-04-16T19:46:46.982Z,74.57
2017-04-16T19:48:37.414Z,74.80
2017-04-16T19:49:43.442Z,75.08
2017-04-16T19:50:49.706Z,75.37
2017-04-16T19:51:45.449Z,75.62
2017-04-16T19:52:48.785Z,74.86
2017-04-16T19:53:44.994Z,74.89
2017-04-16T19:54:40.027Z,75.11
2017-04-16T19:55:40.237Z,74.69
2017-04-16T19:56:44.544Z,75.02
2017-04-16T19:57:52.668Z,74.78
2017-04-16T19:58:45.450Z,75.33
2017-04-16T19:59:44.576Z,75.23
2017-04-16T20:01:43.035Z,75.25
2017-04-16T20:02:37.183Z,74.45
2017-04-16T20:03:31.580Z,74.55
2017-04-16T20:04:40.106Z,74.71
2017-04-16T20:05:34.347Z,75.10
2017-04-16T20:06:44.030Z,74.61
2017-04-16T20:07:44.032Z,75.08
2017-04-16T20:09:33.738Z,74.49
2017-04-16T20:10:40.406Z,75.37
2017-04-16T20:11:44.454Z,75.58
2017-04-16T20:12:44.661Z,75.98
2017-04-16T20:13:45.444Z,75.94
2017-04-16T20:14:44.548Z,75.72
2017-04-16T20:15:50.593Z,75.48
2017-04-16T20:16:45.059Z,75.05
2017-04-16T20:17:45.375Z,74.88
2017-04-16T20:18:45.233Z,75.20
2017-04-16T20:33:08.026Z,76.07
2017-04-16T20:34:07.736Z,76.51
2017-04-16T20:35:08.412Z,76.51
2017-04-16T20:36:08.853Z,75.71
2017-04-16T20:37:08.524Z,74.87
2017-04-16T20:38:08.173Z,75.18
2017-04-16T20:39:08.610Z,74.97
2017-04-16T20:40:08.375Z,75.11
2017-04-16T20:41:08.821Z,75.20
2017-04-16T20:42:09.257Z,75.74
2017-04-16T20:43:09.194Z,75.05
2017-04-16T20:44:08.623Z,75.55
2017-04-16T20:45:09.053Z,75.17
2017-04-16T20:46:08.493Z,75.42
2017-04-16T20:47:08.305Z,74.76
2017-04-16T20:48:08.044Z,74.72
2017-04-16T20:49:08.470Z,74.58
2017-04-16T20:50:08.896Z,74.96
2017-04-16T20:51:09.294Z,74.82
2017-04-16T20:52:08.068Z,74.87
2017-04-16T20:53:08.489Z,74.87
2017-04-16T20:54:08.921Z,75.24
2017-04-16T20:55:09.481Z,75.13
2017-04-16T20:56:09.014Z,75.17
2017-04-16T20:57:07.944Z,75.01
2017-04-16T20:58:08.383Z,74.93
2017-04-16T20:59:08.890Z,74.81
2017-04-16T21:00:09.468Z,75.41
2017-04-16T21:01:08.895Z,75.09
2017-04-16T21:02:09.432Z,75.44
2017-04-16T21:03:09.391Z,75.88
2017-04-16T21:04:08.839Z,75.90
2017-04-16T21:05:09.405Z,75.97
2017-04-16T21:06:08.858Z,74.97
2017-04-16T21:07:08.637Z,75.00
2017-04-16T21:08:09.059Z,75.65
2017-04-16T21:59:08.635Z,76.20
2017-04-16T22:00:08.255Z,76.31
2017-04-16T22:01:08.741Z,76.71
2017-04-16T22:02:08.308Z,76.85
2017-04-16T22:03:07.802Z,76.97
2017-04-16T22:04:09.747Z,77.18
2017-04-16T22:05:09.186Z,77.20
2017-04-16T22:06:07.683Z,77.40
2017-04-16T22:07:09.126Z,76.91
2017-04-16T22:08:08.603Z,76.22
2017-04-16T22:09:09.052Z,76.59
2017-04-16T22:10:08.650Z,76.57
2017-04-16T22:11:08.155Z,76.91
2017-04-16T22:12:08.592Z,76.82
2017-04-16T22:13:09.060Z,76.89
2017-04-16T22:14:08.501Z,76.40
2017-04-16T22:15:08.922Z,76.26
2017-04-16T22:16:08.520Z,76.53
2017-04-16T22:17:09.140Z,76.69
2017-04-16T22:18:08.664Z,76.47
2017-04-16T22:19:09.136Z,76.33
2017-04-16T22:20:08.570Z,76.21
2017-04-16T22:21:08.992Z,76.90
2017-04-16T22:22:07.634Z,76.95
2017-04-16T22:23:09.062Z,76.92
2017-04-16T22:24:08.492Z,77.12
2017-04-16T22:25:09.050Z,75.98
2017-04-16T22:26:07.603Z,76.37
2017-04-16T22:27:08.133Z,76.83
2017-04-16T22:28:08.565Z,76.73
2017-04-16T22:29:08.153Z,76.48
2017-04-16T22:30:08.633Z,76.69
2017-04-16T22:31:08.213Z,76.73
2017-04-16T22:32:08.818Z,76.61
2017-04-16T22:33:08.507Z,76.86
2017-04-16T22:34:08.933Z,76.77
2017-04-16T22:35:08.413Z,77.01
2017-04-16T22:36:08.839Z,76.54
2017-04-16T22:37:08.419Z,76.33
2017-04-16T22:38:08.832Z,76.73
2017-04-16T22:39:09.264Z,76.91
2017-04-16T22:40:08.744Z,76.84
2017-04-16T22:41:08.260Z,77.29
2017-04-16T22:42:08.885Z,76.51
2017-04-16T22:43:08.741Z,76.51
2017-04-16T22:44:09.195Z,76.16
2017-04-16T22:45:08.709Z,76.85
2017-04-16T22:46:09.178Z,77.16
2017-04-16T22:47:08.606Z,76.80
2017-04-16T22:48:09.010Z,76.74
2017-04-16T22:49:08.435Z,76.73
2017-04-16T22:50:09.520Z,77.20
2017-04-16T22:51:09.200Z,77.24
2017-04-16T22:52:08.741Z,77.14
2017-04-16T22:53:09.186Z,76.80
2017-04-16T22:54:08.790Z,76.83
2017-04-16T22:55:09.574Z,77.41
2017-04-16T22:56:08.064Z,77.48
2017-04-16T22:57:07.604Z,77.33
2017-04-16T22:58:09.056Z,77.49
2017-04-16T22:59:08.544Z,77.09
2017-04-16T23:00:08.954Z,77.05
2017-04-16T23:01:08.402Z,77.61
2017-04-16T23:02:08.876Z,77.87
2017-04-16T23:03:07.646Z,78.35
2017-04-16T23:04:08.277Z,77.84
2017-04-16T23:05:08.743Z,77.66
2017-04-16T23:06:09.236Z,77.19
2017-04-16T23:07:08.733Z,77.13
2017-04-16T23:08:09.174Z,77.17
2017-04-16T23:09:08.610Z,77.76
2017-04-16T23:10:09.033Z,78.07
2017-04-16T23:11:08.543Z,77.89
2017-04-16T23:12:09.245Z,76.79
2017-04-16T23:13:08.734Z,76.55
2017-04-16T23:14:09.355Z,76.92
2017-04-16T23:15:08.927Z,77.36
2017-04-16T23:16:08.459Z,77.55
2017-04-16T23:17:09.166Z,77.95
2017-04-16T23:18:08.609Z,77.43
2017-04-16T23:19:09.073Z,76.54
2017-04-16T23:20:08.673Z,76.67
2017-04-16T23:21:09.584Z,76.86
2017-04-16T23:22:08.320Z,76.94
2017-04-16T23:23:08.799Z,76.97
2017-04-16T23:24:09.250Z,76.62
2017-04-16T23:25:08.664Z,77.14
2017-04-16T23:26:09.296Z,77.32
2017-04-16T23:27:08.723Z,77.17
2017-04-16T23:28:09.343Z,77.18
2017-04-16T23:29:09.339Z,76.95
2017-04-16T23:30:08.803Z,76.72
2017-04-16T23:31:08.271Z,77.05
2017-04-16T23:32:07.787Z,76.90
2017-04-16T23:33:08.507Z,76.78
2017-04-16T23:34:08.058Z,76.88
2017-04-16T23:35:07.754Z,77.08
2017-04-16T23:36:08.301Z,77.09
2017-04-16T23:37:08.035Z,76.86
2017-04-16T23:38:07.637Z,76.79
2017-04-16T23:39:08.473Z,76.85
2017-04-16T23:40:07.956Z,76.82
2017-04-16T23:41:07.515Z,76.78
2017-04-16T23:42:08.017Z,76.96
2017-04-16T23:43:07.736Z,76.86
2017-04-16T23:44:08.277Z,76.95
2017-04-16T23:45:07.800Z,76.89
2017-04-16T23:46:08.364Z,76.89
2017-04-16T23:47:07.665Z,77.35
2017-04-16T23:48:08.245Z,77.09
2017-04-16T23:49:08.079Z,76.89
2017-04-16T23:50:07.609Z,77.10
2017-04-16T23:51:08.072Z,77.26
2017-04-16T23:52:07.573Z,77.48
2017-04-16T23:53:08.111Z,76.93
2017-04-16T23:54:07.713Z,76.99
2017-04-16T23:55:08.324Z,77.09
2017-04-16T23:56:07.951Z,77.46
2017-04-16T23:57:07.802Z,76.89
2017-04-16T23:58:07.999Z,76.71
2017-04-16T23:59:07.763Z,76.60
